KPHN

Details ICAO KPHN (PHN)
Name St Clair Co Intl
Region United States
Timezone America/Detroit (UTC-5.0)
Plans Departing 18
Arriving 17
Stats Elevation 650 ft / 198 m (AMSL)
Location 42.911051° -82.528743°
Runways 2
Magnetic Variation 8.061° W
Sunrise 2017-12-16 12:56:25 UTC / 2017-12-16 07:56:25 Local
Sunset 2017-12-16 21:58:04 UTC / 2017-12-16 16:58:04 Local
Advertisement - Login to hide

Runways

ID Width Length Bearing (true) Bearing (mag) Surface Threshold Offset Overrun Length
04 100 ft / 30 m 5,103 ft / 1,555 m 36.05° 44.11° Asphalt 0 ft / 0 m 0 ft / 0 m
10 75 ft / 23 m 3,992 ft / 1,217 m 94.73° 102.79° Asphalt 0 ft / 0 m 0 ft / 0 m
22 100 ft / 30 m 5,103 ft / 1,555 m 216.06° 224.12° Asphalt 0 ft / 0 m 0 ft / 0 m
28 75 ft / 23 m 3,992 ft / 1,217 m 274.74° 282.80° Asphalt 0 ft / 0 m 0 ft / 0 m

Map

Weather


0- 5 10 15 20 25 30 35+ Temperature / ° C

Clouds and Precipitation
Forecast for 2017-12-17 06:00 UTC. Updated an hour ago

Ground ~20,000 ft ~40,000 ft Winds

METAR

KPHN 170435Z AUTO 06005KT 10SM OVC024 M05/M10 A3020 RMK AO2

TAF

Not found

Frequencies

Recorded 118.37 MHz AWOS 3
Approach 119.60 MHz SELFRIDGE APP/DEP
Unicom 123.05 MHz CTAF/UNICOM
Warning: Do not use this data for real-world aviation or navigation. No guarantee of current accuracy is given.